createdAt,value
2022-10-11T00:01:00.918Z,13.50
2022-10-11T00:03:29.067Z,13.50
2022-10-11T00:05:57.193Z,13.50
2022-10-11T00:08:25.333Z,13.40
2022-10-11T00:11:01.732Z,13.50
2022-10-11T00:13:31.411Z,13.40
2022-10-11T00:16:00.060Z,13.40
2022-10-11T00:18:28.415Z,13.30
2022-10-11T00:21:04.569Z,13.40
2022-10-11T00:23:33.162Z,13.30
2022-10-11T00:26:05.084Z,13.20
2022-10-11T00:28:35.276Z,13.20
2022-10-11T00:31:07.512Z,13.20
2022-10-11T00:33:36.068Z,13.20
2022-10-11T00:36:04.852Z,13.20
2022-10-11T00:38:33.245Z,13.20
2022-10-11T00:41:01.874Z,13.20
2022-10-11T00:43:33.981Z,13.20
2022-10-11T00:46:32.040Z,13.20
2022-10-11T00:49:07.364Z,13.20
2022-10-11T00:51:49.973Z,13.20
2022-10-11T00:54:25.254Z,13.20
2022-10-11T00:56:59.457Z,13.10
2022-10-11T00:59:36.615Z,13.00
2022-10-11T01:02:05.815Z,12.90
2022-10-11T01:04:34.924Z,12.70
2022-10-11T01:07:03.986Z,12.60
2022-10-11T01:09:32.582Z,12.40
2022-10-11T01:12:04.681Z,12.30
2022-10-11T01:15:06.752Z,12.30
2022-10-11T01:17:50.661Z,12.20
2022-10-11T01:20:44.449Z,12.10
2022-10-11T01:24:20.115Z,12.00
2022-10-11T01:27:48.636Z,11.90
2022-10-11T01:30:26.067Z,11.80
2022-10-11T01:33:19.645Z,11.70
2022-10-11T01:35:58.327Z,11.80
2022-10-11T01:38:36.735Z,11.80
2022-10-11T01:41:12.093Z,11.70
2022-10-11T01:43:43.008Z,11.60
2022-10-11T01:46:13.495Z,11.60
2022-10-11T01:48:52.995Z,11.40
2022-10-11T01:51:24.264Z,11.30
2022-10-11T01:54:25.833Z,11.20
2022-10-11T01:57:28.436Z,11.00
2022-10-11T02:00:05.161Z,10.90
2022-10-11T02:03:03.228Z,10.90
2022-10-11T02:05:40.199Z,10.90
2022-10-11T02:08:20.018Z,10.70
2022-10-11T02:10:55.567Z,10.70
2022-10-11T02:13:34.390Z,10.60
2022-10-11T02:16:09.370Z,10.50
2022-10-11T02:18:46.631Z,10.40
2022-10-11T02:21:20.263Z,10.30
2022-10-11T02:23:54.737Z,10.30
2022-10-11T02:26:25.841Z,10.20
2022-10-11T02:29:00.374Z,10.20
2022-10-11T02:31:31.666Z,10.10
2022-10-11T02:34:10.677Z,10.00
2022-10-11T02:36:48.707Z,9.90
2022-10-11T02:39:25.547Z,9.90
2022-10-11T02:41:58.880Z,9.70
2022-10-11T02:44:37.712Z,9.70
2022-10-11T02:47:06.859Z,9.60
2022-10-11T02:49:37.085Z,9.50
2022-10-11T02:52:07.772Z,9.50
2022-10-11T02:54:35.926Z,9.50
2022-10-11T02:57:04.061Z,9.50
2022-10-11T02:59:32.037Z,9.40
2022-10-11T03:02:00.061Z,9.40
2022-10-11T03:04:28.182Z,9.30
2022-10-11T03:06:57.511Z,9.30
2022-10-11T03:09:25.566Z,9.30
2022-10-11T03:11:53.540Z,9.20
2022-10-11T03:14:21.539Z,9.20
2022-10-11T03:16:51.554Z,9.30
2022-10-11T03:19:19.738Z,9.10
2022-10-11T03:21:47.837Z,9.00
2022-10-11T03:24:17.215Z,9.00
2022-10-11T03:26:45.574Z,9.00
2022-10-11T03:29:13.686Z,8.90
2022-10-11T03:31:41.689Z,8.90
2022-10-11T03:34:10.533Z,8.90
2022-10-11T03:36:38.552Z,8.80
2022-10-11T03:39:06.591Z,8.80
2022-10-11T03:41:36.083Z,8.80
2022-10-11T03:44:04.219Z,8.80
2022-10-11T03:46:32.228Z,8.80
2022-10-11T03:49:00.283Z,8.80
2022-10-11T03:51:28.404Z,8.80
2022-10-11T03:53:56.409Z,8.70
2022-10-11T03:56:24.758Z,8.70
2022-10-11T03:58:54.115Z,8.60
2022-10-11T04:01:22.143Z,8.60
2022-10-11T04:03:50.165Z,8.70
2022-10-11T04:06:18.173Z,8.50
2022-10-11T04:08:46.131Z,8.50
2022-10-11T04:11:14.141Z,8.40
2022-10-11T04:13:42.108Z,8.40
2022-10-11T04:16:11.498Z,8.40
2022-10-11T04:18:39.936Z,8.30
2022-10-11T04:21:08.022Z,8.40
2022-10-11T04:23:36.059Z,8.40
2022-10-11T04:26:07.727Z,8.40
2022-10-11T04:28:36.810Z,8.40
2022-10-11T04:31:06.566Z,8.40
2022-10-11T04:33:35.987Z,8.30
2022-10-11T04:36:04.670Z,8.20
2022-10-11T04:38:32.897Z,8.20
2022-10-11T04:41:08.522Z,8.20
2022-10-11T04:43:36.900Z,8.10
2022-10-11T04:46:06.032Z,8.10
2022-10-11T04:48:36.632Z,8.10
2022-10-11T04:51:05.351Z,8.20
2022-10-11T04:53:33.390Z,8.20
2022-10-11T04:56:04.925Z,8.30
2022-10-11T04:58:35.117Z,8.20
2022-10-11T05:01:03.416Z,8.20
2022-10-11T05:03:31.901Z,8.20
2022-10-11T05:06:05.714Z,8.10
2022-10-11T05:08:34.241Z,8.10
2022-10-11T05:11:05.278Z,8.10
2022-10-11T05:13:35.267Z,8.10
2022-10-11T05:16:08.447Z,8.10
2022-10-11T05:18:39.692Z,8.00
2022-10-11T05:21:16.831Z,8.00
2022-10-11T05:23:46.408Z,8.00
2022-10-11T05:26:15.017Z,7.90
2022-10-11T05:28:43.715Z,8.00
2022-10-11T05:31:12.269Z,8.00
2022-10-11T05:33:40.602Z,8.00
2022-10-11T05:36:10.723Z,8.00
2022-10-11T05:38:39.261Z,8.00
2022-10-11T05:41:09.081Z,8.00
2022-10-11T05:43:37.143Z,8.00
2022-10-11T05:46:05.783Z,8.10
2022-10-11T05:48:34.353Z,8.10
2022-10-11T05:51:03.464Z,8.10
2022-10-11T05:53:33.422Z,8.10
2022-10-11T05:56:01.717Z,8.10
2022-10-11T05:58:31.146Z,8.10
2022-10-11T06:00:59.203Z,8.10
2022-10-11T06:03:27.745Z,8.10
2022-10-11T06:06:03.290Z,8.20
2022-10-11T06:08:33.652Z,8.20
2022-10-11T06:11:13.145Z,8.30
2022-10-11T06:13:42.113Z,8.30
2022-10-11T06:16:10.811Z,8.40
2022-10-11T06:18:38.993Z,8.50
2022-10-11T06:21:07.772Z,8.60
2022-10-11T06:23:37.165Z,8.60
2022-10-11T06:26:09.352Z,8.70
2022-10-11T06:28:38.686Z,8.70
2022-10-11T06:31:08.306Z,8.80
2022-10-11T06:33:37.543Z,8.90
2022-10-11T06:36:09.668Z,9.00
2022-10-11T06:38:44.558Z,9.10
2022-10-11T06:41:17.656Z,9.10
2022-10-11T06:43:46.441Z,9.20
2022-10-11T06:46:14.614Z,9.30
2022-10-11T06:48:44.677Z,9.40
2022-10-11T06:51:12.960Z,9.50
2022-10-11T06:53:43.007Z,9.60
2022-10-11T06:56:13.925Z,9.60
2022-10-11T06:58:42.165Z,9.70
2022-10-11T07:01:13.705Z,9.80
2022-10-11T07:03:41.769Z,9.90
2022-10-11T07:06:13.293Z,10.00
2022-10-11T07:08:42.963Z,10.00
2022-10-11T07:11:13.853Z,10.20
2022-10-11T07:13:42.771Z,10.20
2022-10-11T07:16:13.659Z,10.30
2022-10-11T07:18:42.313Z,10.40
2022-10-11T07:21:13.210Z,10.50
2022-10-11T07:23:43.567Z,10.50
2022-10-11T07:26:12.480Z,10.60
2022-10-11T07:28:42.157Z,10.60
2022-10-11T07:31:14.195Z,10.70
2022-10-11T07:33:42.678Z,10.80
2022-10-11T07:36:12.106Z,10.90
2022-10-11T07:38:43.022Z,11.10
2022-10-11T07:41:11.562Z,11.20
2022-10-11T07:43:39.939Z,11.30
2022-10-11T07:46:09.095Z,11.30
2022-10-11T07:48:39.015Z,11.40
2022-10-11T07:51:11.143Z,11.60
2022-10-11T07:53:45.412Z,11.60
2022-10-11T07:56:16.209Z,11.70
2022-10-11T07:58:44.932Z,11.80
2022-10-11T08:01:14.599Z,11.90
2022-10-11T08:03:42.700Z,12.00
2022-10-11T08:06:14.596Z,12.10
2022-10-11T08:08:44.216Z,12.10
2022-10-11T08:11:20.784Z,12.20
2022-10-11T08:13:48.771Z,12.30
2022-10-11T08:16:17.431Z,12.40
2022-10-11T08:18:45.894Z,12.40
2022-10-11T08:21:17.295Z,12.50
2022-10-11T08:23:47.137Z,12.50
2022-10-11T08:26:15.499Z,12.70
2022-10-11T08:28:43.601Z,12.70
2022-10-11T08:31:15.439Z,12.80
2022-10-11T08:33:44.110Z,12.90
2022-10-11T08:36:13.445Z,13.00
2022-10-11T08:38:42.262Z,13.00
2022-10-11T08:41:28.599Z,13.20
2022-10-11T08:44:21.342Z,13.30
2022-10-11T08:47:00.997Z,13.30
2022-10-11T08:49:34.271Z,13.30
2022-10-11T08:52:07.395Z,13.30
2022-10-11T08:54:47.754Z,13.40
2022-10-11T08:57:21.891Z,13.40
2022-10-11T08:59:57.274Z,13.50
2022-10-11T09:03:06.493Z,13.60
2022-10-11T09:05:36.506Z,13.70
2022-10-11T09:08:19.841Z,13.80
2022-10-11T09:11:13.798Z,13.80
2022-10-11T09:14:15.145Z,13.90
2022-10-11T09:17:01.106Z,14.00
2022-10-11T09:19:57.214Z,14.00
2022-10-11T09:22:42.491Z,14.00
2022-10-11T09:25:24.741Z,14.20
2022-10-11T09:28:11.764Z,14.20
2022-10-11T09:30:48.545Z,14.30
2022-10-11T09:33:21.993Z,14.40
2022-10-11T09:35:53.464Z,14.50
2022-10-11T09:38:42.032Z,14.70
2022-10-11T09:41:19.345Z,14.50
2022-10-11T09:43:50.559Z,14.50
2022-10-11T09:46:32.623Z,14.40
2022-10-11T09:49:04.069Z,14.40
2022-10-11T09:51:33.760Z,14.30
2022-10-11T09:54:05.254Z,14.20
2022-10-11T09:56:41.162Z,14.00
2022-10-11T09:59:28.341Z,13.90
2022-10-11T10:02:21.911Z,13.70
2022-10-11T10:05:04.216Z,13.60
2022-10-11T10:07:35.500Z,13.50
2022-10-11T10:10:30.954Z,13.50
2022-10-11T10:13:02.423Z,13.40
2022-10-11T10:15:32.543Z,13.50
2022-10-11T10:18:02.988Z,13.50
2022-10-11T10:20:34.505Z,13.80
2022-10-11T10:23:10.870Z,14.20
2022-10-11T10:25:43.478Z,14.40
2022-10-11T10:28:23.832Z,14.70
2022-10-11T10:30:55.295Z,15.20
2022-10-11T10:33:28.062Z,15.10
2022-10-11T10:36:04.196Z,14.90
2022-10-11T10:38:40.334Z,14.80
2022-10-11T10:41:13.829Z,14.90
2022-10-11T10:43:46.444Z,14.80
2022-10-11T10:46:48.440Z,14.60
2022-10-11T10:49:53.786Z,14.50
2022-10-11T10:52:48.942Z,14.40
2022-10-11T10:55:35.493Z,14.20
2022-10-11T10:58:18.918Z,14.10
2022-10-11T11:00:50.624Z,14.00
2022-10-11T11:03:28.968Z,14.00
2022-10-11T11:06:04.323Z,14.10
2022-10-11T11:08:53.321Z,14.10
2022-10-11T11:11:40.817Z,14.20
2022-10-11T11:14:28.795Z,14.30
2022-10-11T11:17:07.079Z,14.50
2022-10-11T11:19:54.574Z,14.70
2022-10-11T11:22:44.295Z,15.00
2022-10-11T11:25:28.199Z,15.30
2022-10-11T11:28:15.505Z,15.70
2022-10-11T11:30:57.750Z,16.00
2022-10-11T11:33:48.468Z,16.20
2022-10-11T11:36:28.682Z,16.30
2022-10-11T11:39:03.350Z,16.40
2022-10-11T11:41:38.645Z,16.70
2022-10-11T11:44:15.538Z,16.90
2022-10-11T11:46:51.087Z,17.10
2022-10-11T11:49:25.862Z,17.20
2022-10-11T11:51:55.956Z,17.10
2022-10-11T11:54:43.282Z,17.40
2022-10-11T11:57:31.543Z,17.20
2022-10-11T12:00:07.729Z,16.90
2022-10-11T12:02:52.570Z,16.50
2022-10-11T12:05:25.016Z,15.90
2022-10-11T12:08:00.622Z,15.50
2022-10-11T12:10:39.531Z,15.10
2022-10-11T12:13:18.572Z,14.90
2022-10-11T12:16:11.761Z,14.70
2022-10-11T12:18:55.165Z,14.60
2022-10-11T12:21:31.779Z,14.50
2022-10-11T12:24:01.615Z,14.50
2022-10-11T12:26:44.544Z,14.60
2022-10-11T12:29:52.105Z,15.20
2022-10-11T12:32:54.847Z,16.00
2022-10-11T12:36:01.417Z,16.30
2022-10-11T12:38:34.771Z,16.10
2022-10-11T12:41:50.723Z,15.90
2022-10-11T12:44:26.239Z,15.60
2022-10-11T12:47:31.081Z,15.40
2022-10-11T12:50:16.946Z,15.20
2022-10-11T12:53:00.860Z,15.00
2022-10-11T12:55:48.506Z,14.80
2022-10-11T12:58:31.062Z,14.60
2022-10-11T13:01:23.111Z,14.70
2022-10-11T13:04:04.965Z,14.70
2022-10-11T13:06:38.170Z,14.70
2022-10-11T13:09:18.847Z,14.70
2022-10-11T13:11:53.369Z,14.90
2022-10-11T13:14:26.341Z,15.10
2022-10-11T13:17:08.686Z,15.20
2022-10-11T13:22:20.052Z,15.40
2022-10-11T13:24:48.120Z,15.70
2022-10-11T13:27:22.709Z,15.80
2022-10-11T13:29:56.225Z,15.90
2022-10-11T13:32:28.299Z,15.80
2022-10-11T13:35:03.893Z,15.90
2022-10-11T13:37:42.081Z,16.00
2022-10-11T13:40:15.679Z,16.10
2022-10-11T13:42:45.129Z,16.10
2022-10-11T13:45:17.936Z,16.10
2022-10-11T13:47:48.873Z,16.10
2022-10-11T13:50:31.617Z,16.20
2022-10-11T13:53:02.939Z,16.10
2022-10-11T13:55:34.845Z,16.20
2022-10-11T13:58:17.662Z,16.30
2022-10-11T14:00:56.989Z,16.30
2022-10-11T14:03:36.975Z,16.30
2022-10-11T14:06:05.782Z,16.20
2022-10-11T14:08:40.365Z,16.10
2022-10-11T14:11:10.219Z,15.90
2022-10-11T14:13:40.700Z,16.00
2022-10-11T14:16:13.973Z,16.00
2022-10-11T14:18:49.848Z,15.90
2022-10-11T14:21:32.022Z,15.80
2022-10-11T14:24:04.874Z,15.70
2022-10-11T14:26:36.915Z,15.70
2022-10-11T14:29:09.697Z,15.60
2022-10-11T14:31:42.030Z,15.60
2022-10-11T14:34:20.052Z,15.60
2022-10-11T14:36:50.836Z,15.60
2022-10-11T14:39:21.377Z,15.60
2022-10-11T14:41:52.164Z,15.40
2022-10-11T14:44:21.641Z,15.30
2022-10-11T14:46:54.790Z,15.10
2022-10-11T14:49:26.156Z,14.90
2022-10-11T14:51:57.028Z,14.70
2022-10-11T14:54:27.802Z,14.60
2022-10-11T14:56:59.400Z,14.40
2022-10-11T14:59:32.412Z,14.20
2022-10-11T15:02:02.117Z,14.10
2022-10-11T15:04:30.419Z,14.00
2022-10-11T15:07:00.332Z,13.90
2022-10-11T15:09:28.275Z,13.80
2022-10-11T15:11:56.847Z,13.70
2022-10-11T15:14:25.886Z,13.60
2022-10-11T15:16:55.967Z,13.40
2022-10-11T15:19:26.584Z,13.40
2022-10-11T15:21:54.534Z,13.20
2022-10-11T15:24:22.522Z,13.10
2022-10-11T15:26:50.700Z,13.00
2022-10-11T15:29:20.344Z,12.90
2022-10-11T15:31:49.183Z,12.80
2022-10-11T15:34:17.594Z,12.80
2022-10-11T15:36:47.155Z,12.80
2022-10-11T15:39:27.413Z,12.70
2022-10-11T15:41:55.516Z,12.70
2022-10-11T15:44:23.578Z,12.60
2022-10-11T15:46:51.698Z,12.50
2022-10-11T15:49:19.670Z,12.50
2022-10-11T15:51:48.938Z,12.50
2022-10-11T15:54:16.879Z,12.40
2022-10-11T15:56:44.759Z,12.30
2022-10-11T15:59:12.732Z,12.30
2022-10-11T16:01:41.018Z,12.20
2022-10-11T16:04:09.116Z,12.10
2022-10-11T16:06:37.037Z,12.10
2022-10-11T16:09:06.612Z,12.00
2022-10-11T16:11:34.539Z,11.90
2022-10-11T16:14:02.568Z,11.80
2022-10-11T16:16:30.487Z,11.70
2022-10-11T16:18:58.430Z,11.70
2022-10-11T16:21:26.374Z,11.60
2022-10-11T16:23:54.329Z,11.60
2022-10-11T16:26:23.588Z,11.50
2022-10-11T16:28:51.635Z,11.40
2022-10-11T16:31:20.940Z,11.30
2022-10-11T16:33:50.157Z,11.20
2022-10-11T16:36:35.936Z,11.10
2022-10-11T16:39:09.623Z,11.10
2022-10-11T16:41:39.522Z,10.90
2022-10-11T16:44:08.832Z,10.90
2022-10-11T16:46:36.756Z,10.80
2022-10-11T16:49:05.727Z,10.70
2022-10-11T16:51:34.092Z,10.70
2022-10-11T16:54:02.480Z,10.60
2022-10-11T16:56:32.518Z,10.60
2022-10-11T16:59:04.040Z,10.50
2022-10-11T17:01:32.150Z,10.50
2022-10-11T17:04:00.464Z,10.50
2022-10-11T17:06:28.499Z,10.50
2022-10-11T17:08:58.072Z,10.50
2022-10-11T17:11:26.110Z,10.60
2022-10-11T17:13:54.664Z,10.60
2022-10-11T17:16:24.561Z,10.60
2022-10-11T17:18:53.006Z,10.50
2022-10-11T17:21:22.833Z,10.40
2022-10-11T17:23:51.442Z,10.30
2022-10-11T17:26:23.254Z,10.30
2022-10-11T17:28:51.547Z,10.20
2022-10-11T17:31:19.968Z,10.20
2022-10-11T17:33:49.577Z,10.10
2022-10-11T17:36:23.916Z,10.10
2022-10-11T17:38:53.169Z,10.00
2022-10-11T17:41:21.745Z,10.10
2022-10-11T17:43:49.788Z,10.00
2022-10-11T17:46:19.333Z,10.10
2022-10-11T17:48:48.620Z,10.10
2022-10-11T17:51:19.917Z,10.10
2022-10-11T17:53:50.711Z,10.10
2022-10-11T17:56:27.790Z,10.10
2022-10-11T17:58:58.824Z,10.10
2022-10-11T18:01:29.815Z,10.10
2022-10-11T18:04:01.554Z,10.10
2022-10-11T18:06:33.451Z,10.10
2022-10-11T18:09:04.017Z,10.20
2022-10-11T18:11:32.953Z,10.10
2022-10-11T18:14:01.498Z,10.00
2022-10-11T18:16:31.231Z,9.90
2022-10-11T18:19:03.148Z,9.80
2022-10-11T18:21:34.550Z,9.70
2022-10-11T18:24:06.168Z,9.70
2022-10-11T18:26:34.995Z,9.60
2022-10-11T18:29:03.289Z,9.60
2022-10-11T18:31:33.673Z,9.70
2022-10-11T18:34:03.588Z,9.70
2022-10-11T18:36:33.192Z,9.60
2022-10-11T18:39:04.402Z,9.60
2022-10-11T18:41:35.213Z,9.70
2022-10-11T18:44:06.700Z,9.70
2022-10-11T18:46:35.525Z,9.70
2022-10-11T18:49:05.090Z,9.70
2022-10-11T18:51:36.310Z,9.70
2022-10-11T18:54:05.958Z,9.70
2022-10-11T18:56:36.852Z,9.70
2022-10-11T18:59:05.972Z,9.60
2022-10-11T19:01:37.997Z,9.60
2022-10-11T19:04:10.458Z,9.50
2022-10-11T19:06:42.917Z,9.50
2022-10-11T19:09:14.140Z,9.40
2022-10-11T19:11:42.908Z,9.40
2022-10-11T19:14:14.678Z,9.30
2022-10-11T19:16:49.014Z,9.30
2022-10-11T19:19:20.873Z,9.20
2022-10-11T19:21:49.434Z,9.30
2022-10-11T19:24:18.624Z,9.20
2022-10-11T19:26:47.450Z,9.20
2022-10-11T19:29:19.688Z,9.20
2022-10-11T19:31:50.868Z,9.20
2022-10-11T19:34:21.808Z,9.10
2022-10-11T19:36:52.689Z,9.10
2022-10-11T19:39:22.483Z,9.00
2022-10-11T19:41:50.525Z,9.00
2022-10-11T19:44:18.952Z,8.90
2022-10-11T19:46:52.140Z,8.90
2022-10-11T19:49:24.747Z,8.90
2022-10-11T19:51:53.684Z,8.90
2022-10-11T19:54:21.959Z,9.00
2022-10-11T19:56:50.010Z,9.00
2022-10-11T19:59:18.254Z,9.00
2022-10-11T20:01:52.043Z,9.00
2022-10-11T20:04:50.457Z,8.90
2022-10-11T20:07:11.457Z,8.90
2022-10-11T20:09:39.502Z,8.90
2022-10-11T20:12:08.203Z,8.90
2022-10-11T20:14:36.216Z,8.90
2022-10-11T20:17:04.229Z,8.90
2022-10-11T20:19:33.547Z,8.90
2022-10-11T20:22:02.360Z,8.90
2022-10-11T20:24:33.556Z,8.80
2022-10-11T20:27:03.306Z,8.90
2022-10-11T20:29:31.530Z,8.90
2022-10-11T20:31:59.912Z,8.90
2022-10-11T20:34:28.637Z,9.00
2022-10-11T20:36:57.957Z,9.00
2022-10-11T20:39:26.066Z,9.00
2022-10-11T20:41:54.159Z,8.90
2022-10-11T20:44:22.205Z,8.90
2022-10-11T20:46:50.187Z,8.90
2022-10-11T20:49:19.798Z,8.80
2022-10-11T20:51:47.856Z,8.80
2022-10-11T20:54:18.061Z,8.70
2022-10-11T20:56:46.107Z,8.60
2022-10-11T20:59:14.141Z,8.60
2022-10-11T21:01:43.975Z,8.60
2022-10-11T21:04:19.603Z,8.60
2022-10-11T21:06:49.665Z,8.60
2022-10-11T21:09:19.180Z,8.60
2022-10-11T21:11:47.331Z,8.50
2022-10-11T21:14:15.428Z,8.50
2022-10-11T21:16:43.722Z,8.50
2022-10-11T21:19:15.929Z,8.50
2022-10-11T21:21:45.688Z,8.40
2022-10-11T21:24:17.801Z,8.30
2022-10-11T21:26:45.860Z,8.30
2022-10-11T21:29:14.038Z,8.20
2022-10-11T21:31:41.981Z,8.20
2022-10-11T21:34:10.009Z,8.20
2022-10-11T21:36:38.051Z,8.20
2022-10-11T21:39:06.054Z,8.30
2022-10-11T21:41:35.625Z,8.30
2022-10-11T21:44:04.388Z,8.40
2022-10-11T21:47:06.025Z,8.30
2022-10-11T21:49:21.811Z,8.20
2022-10-11T21:51:50.201Z,8.20
2022-10-11T21:54:18.778Z,8.10
2022-10-11T21:56:48.539Z,8.10
2022-10-11T21:59:16.752Z,8.10
2022-10-11T22:01:45.178Z,8.10
2022-10-11T22:04:13.377Z,8.00
2022-10-11T22:06:41.429Z,8.00
2022-10-11T22:09:10.232Z,8.00
2022-10-11T22:11:38.648Z,7.90
2022-10-11T22:14:08.478Z,7.90
2022-10-11T22:16:36.567Z,7.90
2022-10-11T22:19:05.221Z,7.80
2022-10-11T22:21:33.423Z,7.80
2022-10-11T22:24:01.483Z,7.70
2022-10-11T22:26:32.191Z,7.70
2022-10-11T22:29:00.949Z,7.70
2022-10-11T22:31:31.180Z,7.70
2022-10-11T22:34:01.247Z,7.60
2022-10-11T22:36:30.665Z,7.60
2022-10-11T22:38:59.150Z,7.60
2022-10-11T22:41:27.514Z,7.70
2022-10-11T22:43:55.501Z,7.70
2022-10-11T22:46:23.487Z,7.80
2022-10-11T22:48:52.908Z,7.80
2022-10-11T22:51:21.197Z,7.80
2022-10-11T22:53:49.240Z,7.70
2022-10-11T22:56:17.256Z,7.70
2022-10-11T22:58:45.427Z,7.60
2022-10-11T23:01:15.591Z,7.60
2022-10-11T23:03:44.215Z,7.60
2022-10-11T23:06:13.595Z,7.60
2022-10-11T23:08:41.855Z,7.50
2022-10-11T23:11:10.960Z,7.60
2022-10-11T23:13:38.931Z,7.60
2022-10-11T23:16:08.416Z,7.50
2022-10-11T23:18:36.755Z,7.50
2022-10-11T23:21:06.734Z,7.50
2022-10-11T23:23:36.572Z,7.50
2022-10-11T23:26:07.760Z,7.40
2022-10-11T23:28:36.300Z,7.40
2022-10-11T23:31:09.248Z,7.40
2022-10-11T23:33:37.696Z,7.40
2022-10-11T23:36:06.957Z,7.30
2022-10-11T23:38:36.253Z,7.30
2022-10-11T23:41:04.284Z,7.30
2022-10-11T23:43:32.241Z,7.30
2022-10-11T23:46:00.579Z,7.30
2022-10-11T23:48:28.610Z,7.20
2022-10-11T23:50:56.581Z,7.30
2022-10-11T23:53:24.691Z,7.20
2022-10-11T23:55:54.139Z,7.20
2022-10-11T23:58:22.450Z,7.10
